Latest Weather Observations for Charlton

IDV60801

Issued at 4:02 pm EDT Saturday 31 January 2015 (issued every 30 minutes, with the page automatically refreshed every 10 minutes)

About weather observations | Map of weather stations | Latest weather observations for VIC | Other Formats
Station Details ID: 080128 Name: CHARLTON Lat: -36.28 Lon: 143.33 Height: 131.7 m
Data from the previous 72 hours. | See also: Recent months at Charlton
Date/Time
EDT
Temp
°C
App
Temp
°C
Dew
Point
Rel
Hum
%
Delta-T
°C
Wind Press
QNH
hPa
Press
MSL
hPa
Rain
since 9 am
mm
Dir
 
Spd
km/h
Gust
km/h
Spd
kts
Gust
kts
31/04:00pm 26.8 22.9 7.3 29 10.4 SSW 17 30 9 16 1010.0 1009.4 0.0
31/03:30pm 26.4 22.5 6.9 29 10.3 SW 17 28 9 15 1010.3 1009.7 0.0
31/03:00pm 26.3 22.5 5.8 27 10.7 SW 15 28 8 15 1010.6 1009.9 0.0
31/02:30pm 25.3 22.0 6.5 30 9.8 SW 13 24 7 13 1010.8 1010.1 0.0
31/02:00pm 24.8 21.3 7.4 33 9.2 SW 15 24 8 13 1011.1 1010.4 0.0
31/01:30pm 24.4 20.6 7.5 34 8.9 SSW 17 30 9 16 1011.5 1010.9 0.0
31/01:00pm 23.3 20.2 7.4 36 8.3 WSW 13 24 7 13 1012.0 1011.4 0.0
31/12:30pm 22.7 20.1 7.7 38 7.9 SSW 11 22 6 12 1012.4 1011.8 0.0
31/12:00pm 22.8 20.9 9.2 42 7.4 SW 9 20 5 11 1012.5 1011.9 0.0
31/11:30am 21.8 19.3 8.3 42 7.1 S 11 20 6 11 1012.6 1012.0 0.0
31/11:00am 20.9 17.4 8.9 46 6.4 SSE 17 30 9 16 1012.7 1012.1 0.0
31/10:30am 20.1 17.1 9.4 50 5.7 S 15 24 8 13 1012.9 1012.3 0.0
31/10:00am 18.7 15.8 9.8 56 4.8 S 15 24 8 13 1012.8 1012.2 0.0
31/09:30am 18.0 14.3 9.4 57 4.5 SSE 19 30 10 16 1012.8 1012.2 0.0
31/09:00am 16.7 12.5 9.6 63 3.7 SSE 22 30 12 16 1012.7 1012.1 0.0
31/08:30am 15.7 11.8 9.6 67 3.2 SSE 20 28 11 15 1012.6 1012.0 0.0
31/08:00am 14.1 12.2 9.1 72 2.6 S 9 13 5 7 1012.5 1011.9 0.0
31/07:30am 12.1 10.6 8.6 79 1.7 SSW 6 9 3 5 1012.6 1012.0 0.0
31/07:00am 10.5 8.8 7.6 82 1.4 SSW 6 7 3 4 1012.3 1011.7 0.0
31/06:30am 10.6 8.6 7.3 80 1.6 SW 7 11 4 6 1012.3 1011.7 0.0
31/06:00am 10.8 8.8 7.3 79 1.7 SW 7 13 4 7 1012.3 1011.7 0.0
31/05:30am 10.8 8.9 6.7 76 1.9 SW 6 7 3 4 1012.1 1011.5 0.0
31/05:00am 11.6 9.5 6.7 72 2.3 W 7 9 4 5 1012.2 1011.6 0.0
31/04:30am 12.2 10.2 6.9 70 2.6 SSW 7 11 4 6 1012.0 1011.4 0.0
31/04:00am 12.4 10.4 7.1 70 2.6 SSW 7 11 4 6 1011.9 1011.3 0.0
31/03:30am 12.9 10.8 6.7 66 3.0 S 7 13 4 7 1012.0 1011.4 0.0
31/03:00am 13.5 11.4 6.8 64 3.3 S 7 11 4 6 1012.0 1011.4 0.0
31/02:30am 14.0 11.2 6.8 62 3.5 SSE 11 15 6 8 1012.2 1011.6 0.0
31/02:00am 14.5 11.3 6.8 60 3.8 SSE 13 20 7 11 1012.2 1011.6 0.0
31/01:30am 15.0 11.7 6.6 57 4.1 SSE 13 19 7 10 1012.5 1011.9 0.0
31/01:00am 14.8 12.3 6.6 58 4.0 S 9 15 5 8 1012.6 1012.0 0.0
31/12:30am 15.2 12.6 6.2 55 4.4 S 9 13 5 7 1012.7 1012.1 0.0
31/12:00am 16.2 12.9 6.3 52 4.9 S 13 19 7 10 1012.8 1012.2 0.0
 
Date/Time
EDT
Temp
°C
App
Temp
°C
Dew
Point
Rel
Hum
%
Delta-T
°C
Wind Press
QNH
hPa
Press
MSL
hPa
Rain
since 9 am
mm
Dir
 
Spd
km/h
Gust
km/h
Spd
kts
Gust
kts
30/11:30pm 16.8 13.5 6.6 51 5.1 S 13 22 7 12 1012.8 1012.2 0.0
30/11:00pm 17.6 13.9 6.5 48 5.5 SSW 15 26 8 14 1012.8 1012.2 0.0
30/10:30pm 18.6 15.2 6.1 44 6.2 SSW 13 24 7 13 1012.6 1012.0 0.0
30/10:00pm 19.2 15.7 5.6 41 6.7 S 13 22 7 12 1012.3 1011.7 0.0
30/09:30pm 20.1 15.9 5.7 39 7.2 SSE 17 26 9 14 1011.9 1011.3 0.0
30/09:00pm 20.8 15.8 4.8 35 7.9 SSE 20 26 11 14 1011.6 1011.0 0.0
30/08:30pm 21.9 17.0 4.0 31 8.7 SSE 19 28 10 15 1011.4 1010.8 0.0
30/08:00pm 23.0 19.2 4.0 29 9.4 S 13 22 7 12 1011.2 1010.5 0.0
30/07:30pm 23.6 18.5 4.0 28 9.7 SSE 20 32 11 17 1011.0 1010.3 0.0
30/07:00pm 24.3 19.5 4.6 28 9.9 SSE 19 33 10 18 1011.0 1010.3 0.0
30/06:30pm 24.5 20.0 4.3 27 10.1 SSE 17 28 9 15 1011.0 1010.3 0.0
30/06:00pm 23.7 18.8 4.1 28 9.7 SSE 19 37 10 20 1011.3 1010.7 0.0
30/05:30pm 25.0 21.0 4.7 27 10.2 S 15 28 8 15 1011.6 1011.0 0.0
30/05:00pm 24.5 19.6 4.3 27 10.1 S 19 33 10 18 1011.9 1011.3 0.0
30/04:30pm 24.7 20.1 5.5 29 9.8 S 19 37 10 20 1012.2 1011.6 0.0
30/04:00pm 23.8 18.5 5.2 30 9.4 SSE 22 37 12 20 1012.5 1011.9 0.0
30/03:30pm 23.7 18.6 4.1 28 9.7 SSE 20 39 11 21 1012.9 1012.3 0.0
30/03:00pm 24.6 19.4 5.4 29 9.8 SSE 22 35 12 19 1013.4 1012.8 0.0
30/02:30pm 24.0 19.4 5.8 31 9.3 SSE 19 35 10 19 1013.9 1013.3 0.0
30/02:00pm 24.6 20.1 6.8 32 9.3 SSE 20 33 11 18 1014.3 1013.7 0.0
30/01:30pm 22.8 17.6 5.7 33 8.7 SSE 22 33 12 18 1014.7 1014.1 0.0
30/01:00pm 22.3 17.3 4.8 32 8.7 SSE 20 33 11 18 1015.0 1014.4 0.0
30/12:30pm 22.3 17.9 4.8 32 8.7 S 17 33 9 18 1015.3 1014.7 0.0
30/12:00pm 21.7 17.4 6.8 38 7.6 S 19 32 10 17 1015.7 1015.1 0.0
30/11:30am 20.7 16.0 5.9 38 7.4 SE 20 41 11 22 1015.9 1015.3 0.0
30/11:00am 20.9 17.6 7.9 43 6.8 S 15 24 8 13 1016.1 1015.5 0.0
30/10:30am 19.3 15.2 8.0 48 5.9 SE 19 28 10 15 1016.3 1015.7 0.0
30/10:00am 18.9 14.3 8.3 50 5.5 SE 22 33 12 18 1016.4 1015.8 0.0
30/09:30am 18.0 13.4 8.3 53 5.0 SE 22 32 12 17 1016.4 1015.8 0.0
30/09:00am 17.0 12.1 8.4 57 4.4 SSE 24 33 13 18 1016.5 1015.9 0.0
30/08:30am 16.0 11.4 8.2 60 4.0 SE 22 33 12 18 1016.1 1015.5 0.0
30/08:00am 14.5 10.6 8.5 67 3.0 SSE 19 28 10 15 1016.1 1015.5 0.0
30/07:30am 12.7 9.8 8.2 74 2.2 SSE 13 19 7 10 1015.9 1015.3 0.0
30/07:00am 11.6 9.0 7.9 78 1.8 S 11 17 6 9 1015.7 1015.1 0.0
30/06:30am 11.0 8.7 7.5 79 1.7 S 9 17 5 9 1015.3 1014.7 0.0
30/06:00am 11.6 8.6 7.5 76 2.0 SSE 13 17 7 9 1015.0 1014.4 0.0
30/05:30am 11.9 8.9 7.8 76 2.0 SSE 13 19 7 10 1014.9 1014.3 0.0
30/05:00am 12.0 9.4 7.9 76 2.0 S 11 22 6 12 1014.7 1014.1 0.0
30/04:30am 12.5 8.9 8.2 75 2.1 SSE 17 24 9 13 1014.7 1014.1 0.0
30/04:00am 12.8 8.6 8.1 73 2.3 SSE 20 26 11 14 1014.7 1014.1 0.0
30/03:30am 13.0 9.3 8.1 72 2.4 SSE 17 24 9 13 1014.8 1014.2 0.0
30/03:00am 13.4 8.8 8.3 71 2.6 SSE 22 32 12 17 1014.9 1014.3 0.0
30/02:30am 13.8 8.8 8.2 69 2.8 SSE 24 32 13 17 1015.1 1014.5 0.0
30/02:00am 14.2 9.7 8.4 68 2.9 SSE 22 32 12 17 1015.4 1014.8 0.0
30/01:30am 14.4 10.2 8.1 66 3.2 SSE 20 30 11 16 1015.6 1015.0 0.0
30/01:00am 14.8 11.1 7.8 63 3.5 SSE 17 24 9 13 1015.7 1015.1 0.0
30/12:30am 15.2 11.1 7.7 61 3.8 SSE 19 28 10 15 1015.8 1015.2 0.0
30/12:00am 15.6 11.7 7.1 57 4.2 SSE 17 24 9 13 1016.3 1015.7 0.0
 
Date/Time
EDT
Temp
°C
App
Temp
°C
Dew
Point
Rel
Hum
%
Delta-T
°C
Wind Press
QNH
hPa
Press
MSL
hPa
Rain
since 9 am
mm
Dir
 
Spd
km/h
Gust
km/h
Spd
kts
Gust
kts
29/11:30pm 16.1 12.2 7.1 55 4.5 SSE 17 24 9 13 1016.5 1015.9 0.0
29/11:00pm 16.8 12.3 6.9 52 4.9 SSE 20 33 11 18 1016.5 1015.9 0.0
29/10:30pm 17.6 12.3 6.8 49 5.4 SSE 24 32 13 17 1016.6 1016.0 0.0
29/10:00pm 18.2 13.2 6.4 46 5.9 SSE 22 32 12 17 1016.3 1015.7 0.0
29/09:30pm 19.1 13.6 5.9 42 6.6 SSE 24 33 13 18 1016.0 1015.4 0.0
29/09:00pm 19.8 14.9 5.1 38 7.2 SSE 20 33 11 18 1015.7 1015.1 0.0
29/08:30pm 20.8 15.0 4.4 34 8.0 SSE 24 35 13 19 1015.3 1014.7 0.0
29/08:00pm 22.1 15.8 3.7 30 8.9 SSE 26 41 14 22 1014.9 1014.3 0.0
29/07:30pm 23.2 16.8 3.2 27 9.7 SSE 26 39 14 21 1014.6 1014.0 0.0
29/07:00pm 24.0 17.6 3.3 26 10.1 SSE 26 39 14 21 1014.3 1013.7 0.0
29/06:30pm 25.0 18.9 3.0 24 10.8 S 24 44 13 24 1014.2 1013.6 0.0
29/06:00pm 25.2 19.0 2.0 22 11.2 SSE 24 39 13 21 1014.2 1013.6 0.0
29/05:30pm 26.2 20.1 2.8 22 11.5 SSE 24 41 13 22 1014.3 1013.7 0.0
29/05:00pm 26.3 20.4 1.6 20 11.9 SSE 22 37 12 20 1014.5 1013.9 0.0
29/04:49pm 26.2 19.2 2.2 21 11.7 SSE 28 48 15 26 1014.6 1014.0 0.0
29/04:30pm 26.1 20.4 0.7 19 12.0 S 20 35 11 19 1014.8 1014.2 0.0
29/04:00pm 26.6 20.7 1.8 20 12.0 S 22 41 12 22 1015.1 1014.5 0.0
29/03:30pm 26.1 19.5 2.1 21 11.6 SSE 26 41 14 22 1015.4 1014.8 0.0
29/03:00pm 26.1 19.8 1.4 20 11.8 SE 24 39 13 21 1015.7 1015.1 0.0
29/02:30pm 26.3 20.5 2.3 21 11.7 SSE 22 32 12 17 1016.2 1015.6 0.0
29/02:00pm 25.5 19.6 1.6 21 11.4 SE 22 35 12 19 1016.5 1015.9 0.0
29/01:30pm 25.1 19.0 2.5 23 11.0 SE 24 35 13 19 1016.9 1016.3 0.0
29/01:00pm 24.2 18.1 2.9 25 10.3 SE 24 33 13 18 1017.1 1016.5 0.0
29/12:30pm 24.2 17.3 2.4 24 10.5 SSE 28 39 15 21 1017.5 1016.9 0.0
29/12:00pm 22.6 16.0 2.1 26 9.7 SE 26 39 14 21 1017.8 1017.2 0.0
29/11:30am 22.5 15.8 3.6 29 9.2 ESE 28 39 15 21 1017.9 1017.4 0.0
29/11:00am 20.8 14.0 3.1 31 8.4 ESE 28 39 15 21 1018.1 1017.6 0.0
29/10:30am 20.7 14.2 4.7 35 7.8 ESE 28 43 15 23 1018.5 1017.9 0.0
29/10:00am 19.5 13.1 5.2 39 7.0 SE 28 41 15 22 1018.4 1017.8 0.0
29/09:30am 18.8 12.0 5.3 41 6.6 ESE 30 43 16 23 1018.4 1017.8 0.0
29/09:00am 17.3 10.6 5.6 46 5.7 SE 30 41 16 22 1018.5 1017.9 0.0
29/08:30am 16.5 10.2 5.8 49 5.2 SE 28 39 15 21 1018.4 1017.8 0.0
29/08:00am 15.6 10.8 5.8 52 4.7 SE 20 32 11 17 1018.2 1017.7 0.0
29/07:30am 13.8 10.5 6.2 60 3.7 SSE 13 20 7 11 1017.9 1017.4 0.0
29/07:00am 12.5 9.1 6.1 65 3.0 SSE 13 19 7 10 1017.5 1016.9 0.0
29/06:30am 12.7 9.4 6.3 65 3.1 SSE 13 20 7 11 1017.0 1016.4 0.0
29/06:00am 12.7 8.6 6.1 64 3.1 SSE 17 22 9 12 1016.7 1016.1 0.0
29/05:30am 13.1 10.3 5.3 59 3.7 SSE 9 15 5 8 1016.7 1016.1 0.0
29/05:00am 14.2 10.7 5.6 56 4.1 SE 13 22 7 12 1016.3 1015.7 0.0
29/04:30am 14.6 10.5 6.4 58 4.0 SE 17 26 9 14 1016.1 1015.5 0.0
29/04:00am 14.8 9.5 6.9 59 3.9 SE 24 33 13 18 1016.1 1015.5 0.0
29/03:30am 15.0 9.9 7.5 61 3.7 SSE 24 32 13 17 1016.3 1015.7 0.0
29/03:00am 15.2 11.0 8.2 63 3.5 SE 20 30 11 16 1016.4 1015.8 0.0
29/02:30am 15.6 11.1 8.4 62 3.7 SE 22 33 12 18 1016.6 1016.0 0.0
29/02:00am 15.9 11.0 8.4 61 3.8 SE 24 33 13 18 1016.6 1016.0 0.0
29/01:30am 16.1 11.5 8.3 60 4.0 SE 22 37 12 20 1016.7 1016.1 0.0
29/01:00am 16.5 12.0 8.5 59 4.1 SSE 22 30 12 16 1016.7 1016.1 0.0
29/12:30am 16.9 12.3 8.3 57 4.4 SSE 22 37 12 20 1016.9 1016.3 0.0
29/12:00am 17.2 12.6 8.1 55 4.7 SSE 22 30 12 16 1016.9 1016.3 0.0
 
Date/Time
EDT
Temp
°C
App
Temp
°C
Dew
Point
Rel
Hum
%
Delta-T
°C
Wind Press
QNH
hPa
Press
MSL
hPa
Rain
since 9 am
mm
Dir
 
Spd
km/h
Gust
km/h
Spd
kts
Gust
kts
28/11:30pm 17.7 12.7 8.0 53 5.0 SSE 24 33 13 18 1017.0 1016.4 0.0
28/11:00pm 18.3 13.2 7.7 50 5.4 SSE 24 32 13 17 1016.8 1016.2 0.0
28/10:30pm 19.4 13.2 7.8 47 6.0 SSE 30 43 16 23 1016.6 1016.0 0.0
28/10:00pm 20.2 14.2 8.5 47 6.1 SSE 30 44 16 24 1016.3 1015.7 0.0
28/09:30pm 21.0 15.7 8.6 45 6.6 SSE 26 41 14 22 1015.9 1015.3 0.0
28/09:00pm 21.9 16.5 8.1 41 7.3 SE 26 33 14 18 1015.4 1014.8 0.0
28/08:30pm 23.0 16.7 7.5 37 8.1 SE 30 39 16 21 1015.0 1014.4 0.0
28/08:00pm 24.3 18.7 7.0 33 9.1 SE 26 37 14 20 1014.5 1013.9 0.0
28/07:30pm 25.5 19.7 6.2 29 10.0 SE 26 37 14 20 1014.0 1013.4 0.0
28/07:00pm 26.4 19.9 4.8 25 11.0 SE 28 39 15 21 1013.7 1013.1 0.0
28/06:30pm 27.3 21.3 3.1 21 12.0 SSE 24 37 13 20 1013.4 1012.8 0.0
28/06:00pm 28.1 22.2 3.7 21 12.3 SE 24 35 13 19 1013.3 1012.7 0.0
28/05:30pm 28.7 22.7 3.5 20 12.7 SE 24 35 13 19 1013.4 1012.8 0.0
28/05:00pm 28.7 23.2 2.1 18 13.1 SSE 20 32 11 17 1013.4 1012.8 0.0
28/04:30pm 29.2 24.1 3.9 20 12.9 SSE 20 35 11 19 1013.4 1012.8 0.0

Other Formats:

Comma delimited format used in spreadsheet applications
http://www.bom.gov.au/fwo/IDV60801/IDV60801.94839.axf

JavaScript Object Notation format (JSON) in row-major order
http://www.bom.gov.au/fwo/IDV60801/IDV60801.94839.json